createdAt,value
2023-08-19T00:00:04.901Z,21.26
2023-08-19T00:01:04.960Z,21.31
2023-08-19T00:02:04.992Z,21.35
2023-08-19T00:03:05.053Z,21.36
2023-08-19T00:04:05.007Z,21.37
2023-08-19T00:05:05.042Z,21.38
2023-08-19T00:06:05.085Z,21.40
2023-08-19T00:07:05.092Z,21.39
2023-08-19T00:08:05.120Z,21.45
2023-08-19T00:09:05.151Z,21.48
2023-08-19T00:10:05.170Z,21.52
2023-08-19T00:11:05.199Z,21.60
2023-08-19T00:12:05.204Z,21.64
2023-08-19T00:13:05.262Z,21.64
2023-08-19T00:14:05.299Z,21.64
2023-08-19T00:15:05.339Z,21.47
2023-08-19T00:16:05.559Z,21.41
2023-08-19T00:17:05.444Z,21.35
2023-08-19T00:18:05.499Z,21.33
2023-08-19T00:19:05.529Z,21.30
2023-08-19T00:20:05.545Z,21.32
2023-08-19T00:21:05.584Z,21.26
2023-08-19T00:22:05.612Z,21.30
2023-08-19T00:23:05.620Z,21.38
2023-08-19T00:24:05.657Z,21.37
2023-08-19T00:25:05.702Z,21.36
2023-08-19T00:26:05.766Z,21.32
2023-08-19T00:27:05.792Z,21.31
2023-08-19T00:28:05.831Z,21.24
2023-08-19T00:29:05.872Z,21.22
2023-08-19T00:30:05.912Z,21.29
2023-08-19T00:31:06.045Z,21.22
2023-08-19T00:32:06.021Z,21.16
2023-08-19T00:33:06.088Z,21.19
2023-08-19T00:34:06.144Z,21.16
2023-08-19T00:35:06.167Z,21.14
2023-08-19T00:36:06.205Z,21.15
2023-08-19T00:37:06.235Z,21.14
2023-08-19T00:38:06.290Z,21.12
2023-08-19T00:39:06.360Z,21.04
2023-08-19T00:40:06.424Z,20.94
2023-08-19T00:41:06.417Z,20.92
2023-08-19T00:42:06.470Z,20.93
2023-08-19T00:43:06.515Z,20.95
2023-08-19T00:44:06.577Z,20.98
2023-08-19T00:45:06.605Z,20.98
2023-08-19T00:46:06.688Z,20.96
2023-08-19T00:47:06.718Z,20.95
2023-08-19T00:48:06.804Z,20.90
2023-08-19T00:49:06.796Z,20.80
2023-08-19T00:50:06.830Z,20.77
2023-08-19T00:51:06.978Z,20.81
2023-08-19T00:52:06.931Z,20.87
2023-08-19T00:53:06.972Z,20.90
2023-08-19T00:54:07.012Z,20.94
2023-08-19T00:55:07.080Z,21.00
2023-08-19T00:56:07.117Z,21.02
2023-08-19T00:57:07.189Z,21.06
2023-08-19T00:58:07.245Z,21.10
2023-08-19T00:59:07.262Z,21.15
2023-08-19T01:00:07.345Z,21.22
2023-08-19T01:01:07.366Z,21.23
2023-08-19T01:02:07.418Z,21.27
2023-08-19T01:03:07.585Z,21.22
2023-08-19T01:04:07.618Z,21.17
2023-08-19T01:05:07.537Z,21.17
2023-08-19T01:06:07.607Z,21.16
2023-08-19T01:07:07.603Z,21.15
2023-08-19T01:08:07.667Z,21.15
2023-08-19T01:09:07.697Z,21.12
2023-08-19T01:10:07.748Z,21.06
2023-08-19T01:11:07.817Z,21.11
2023-08-19T01:12:07.857Z,21.17
2023-08-19T01:13:07.916Z,21.11
2023-08-19T01:14:07.985Z,21.04
2023-08-19T01:15:08.025Z,21.05
2023-08-19T01:16:08.130Z,21.00
2023-08-19T01:17:08.102Z,20.89
2023-08-19T01:18:08.236Z,20.89
2023-08-19T01:19:08.207Z,20.92
2023-08-19T01:20:08.270Z,20.86
2023-08-19T01:21:08.337Z,20.95
2023-08-19T01:22:08.369Z,20.98
2023-08-19T01:23:08.399Z,21.05
2023-08-19T01:24:08.457Z,21.05
2023-08-19T01:25:08.413Z,21.01
2023-08-19T01:26:08.453Z,20.99
2023-08-19T01:27:08.519Z,21.00
2023-08-19T01:28:08.561Z,21.00
2023-08-19T01:29:08.627Z,20.99
2023-08-19T01:30:08.653Z,20.96
2023-08-19T01:31:08.666Z,20.96
2023-08-19T01:32:08.717Z,20.89
2023-08-19T01:33:08.796Z,20.93
2023-08-19T01:34:08.774Z,20.94
2023-08-19T01:35:08.818Z,20.94
2023-08-19T01:36:08.837Z,20.94
2023-08-19T01:37:08.848Z,20.86
2023-08-19T01:38:08.906Z,20.71
2023-08-19T01:39:08.954Z,20.54
2023-08-19T01:40:08.953Z,20.37
2023-08-19T01:41:08.979Z,20.29
2023-08-19T01:42:08.982Z,20.25
2023-08-19T01:43:08.990Z,20.28
2023-08-19T01:44:09.053Z,20.21
2023-08-19T01:45:09.094Z,20.10
2023-08-19T01:46:09.212Z,20.13
2023-08-19T01:47:09.217Z,20.16
2023-08-19T01:48:09.259Z,20.14
2023-08-19T01:49:09.220Z,20.18
2023-08-19T01:50:09.256Z,20.14
2023-08-19T01:51:09.238Z,20.20
2023-08-19T01:52:09.297Z,20.23
2023-08-19T01:53:09.287Z,20.32
2023-08-19T01:54:09.340Z,20.41
2023-08-19T01:55:09.354Z,20.46
2023-08-19T01:56:09.356Z,20.54
2023-08-19T01:57:09.408Z,20.60
2023-08-19T01:58:09.412Z,20.66
2023-08-19T01:59:09.433Z,20.71
2023-08-19T02:00:09.454Z,20.72
2023-08-19T02:01:09.505Z,20.71
2023-08-19T02:02:09.511Z,20.66
2023-08-19T02:03:09.561Z,20.60
2023-08-19T02:04:09.530Z,20.56
2023-08-19T02:05:09.599Z,20.60
2023-08-19T02:06:09.561Z,20.65
2023-08-19T02:07:09.559Z,20.75
2023-08-19T02:08:09.597Z,20.82
2023-08-19T02:09:09.616Z,20.84
2023-08-19T02:10:09.627Z,20.88
2023-08-19T02:11:09.668Z,20.89
2023-08-19T02:12:09.689Z,20.88
2023-08-19T02:13:09.769Z,20.78
2023-08-19T02:14:09.793Z,20.79
2023-08-19T02:15:09.844Z,20.72
2023-08-19T02:16:09.924Z,20.69
2023-08-19T02:17:09.880Z,20.71
2023-08-19T02:18:09.984Z,20.69
2023-08-19T02:19:09.980Z,20.75
2023-08-19T02:20:09.996Z,20.73
2023-08-19T02:21:10.012Z,20.78
2023-08-19T02:22:10.058Z,20.77
2023-08-19T02:23:10.091Z,20.60
2023-08-19T02:24:10.100Z,20.58
2023-08-19T02:25:10.163Z,20.57
2023-08-19T02:26:10.170Z,20.53
2023-08-19T02:27:10.183Z,20.47
2023-08-19T02:28:10.207Z,20.44
2023-08-19T02:29:10.265Z,20.30
2023-08-19T02:30:10.257Z,20.28
2023-08-19T02:31:10.336Z,20.24
2023-08-19T02:32:10.336Z,20.18
2023-08-19T02:33:10.375Z,20.18
2023-08-19T02:34:10.367Z,20.24
2023-08-19T02:35:10.375Z,20.18
2023-08-19T02:36:10.408Z,20.16
2023-08-19T02:37:10.458Z,20.10
2023-08-19T02:38:10.489Z,19.90
2023-08-19T02:39:10.533Z,19.69
2023-08-19T02:40:10.579Z,19.58
2023-08-19T02:41:10.614Z,19.62
2023-08-19T02:42:10.677Z,19.58
2023-08-19T02:43:10.688Z,19.57
2023-08-19T02:44:10.735Z,19.63
2023-08-19T02:45:10.779Z,19.67
2023-08-19T02:46:10.868Z,19.68
2023-08-19T02:47:10.919Z,19.66
2023-08-19T02:48:11.018Z,19.66
2023-08-19T02:49:11.002Z,19.64
2023-08-19T02:50:11.065Z,19.66
2023-08-19T02:51:11.093Z,19.69
2023-08-19T02:52:11.156Z,19.65
2023-08-19T02:53:11.199Z,19.70
2023-08-19T02:54:11.255Z,19.69
2023-08-19T02:55:11.268Z,19.54
2023-08-19T02:56:11.300Z,19.53
2023-08-19T02:57:11.341Z,19.53
2023-08-19T02:58:11.400Z,19.46
2023-08-19T02:59:11.477Z,19.46
2023-08-19T03:00:11.482Z,19.59
2023-08-19T03:01:11.588Z,19.61
2023-08-19T03:02:11.668Z,19.56
2023-08-19T03:03:11.780Z,19.55
2023-08-19T03:04:11.723Z,19.59
2023-08-19T03:05:11.762Z,19.70
2023-08-19T03:06:11.816Z,19.79
2023-08-19T03:07:11.876Z,19.84
2023-08-19T03:08:11.911Z,19.86
2023-08-19T03:09:11.975Z,19.93
2023-08-19T03:10:12.005Z,19.95
2023-08-19T03:11:12.069Z,19.98
2023-08-19T03:12:12.079Z,19.99
2023-08-19T03:13:12.153Z,19.90
2023-08-19T03:14:12.187Z,19.84
2023-08-19T03:15:12.237Z,19.78
2023-08-19T03:16:12.315Z,19.83
2023-08-19T03:17:12.329Z,19.68
2023-08-19T03:18:12.394Z,19.73
2023-08-19T03:19:12.463Z,19.77
2023-08-19T03:20:12.475Z,19.73
2023-08-19T03:21:12.502Z,19.51
2023-08-19T03:22:12.597Z,19.33
2023-08-19T03:23:12.575Z,19.33
2023-08-19T03:24:12.647Z,19.26
2023-08-19T03:25:12.657Z,19.17
2023-08-19T03:26:12.683Z,19.10
2023-08-19T03:27:12.724Z,19.03
2023-08-19T03:28:12.782Z,19.00
2023-08-19T03:29:12.834Z,19.03
2023-08-19T03:30:12.876Z,19.20
2023-08-19T03:31:12.937Z,19.35
2023-08-19T03:32:12.968Z,19.46
2023-08-19T03:33:13.067Z,19.56
2023-08-19T03:34:13.143Z,19.58
2023-08-19T03:35:13.126Z,19.61
2023-08-19T03:36:13.179Z,19.62
2023-08-19T03:37:13.261Z,19.65
2023-08-19T03:38:13.299Z,19.63
2023-08-19T03:39:13.368Z,19.60
2023-08-19T03:40:13.425Z,19.63
2023-08-19T03:41:13.445Z,19.67
2023-08-19T03:42:13.465Z,19.69
2023-08-19T03:43:13.539Z,19.71
2023-08-19T03:44:13.591Z,19.67
2023-08-19T03:45:13.640Z,19.70
2023-08-19T03:46:13.723Z,19.68
2023-08-19T03:47:13.750Z,19.70
2023-08-19T03:48:13.845Z,19.78
2023-08-19T03:49:13.858Z,19.89
2023-08-19T03:50:13.916Z,19.85
2023-08-19T03:51:13.950Z,19.85
2023-08-19T03:52:14.011Z,19.91
2023-08-19T03:53:14.024Z,19.89
2023-08-19T03:54:14.067Z,19.86
2023-08-19T03:55:14.132Z,19.82
2023-08-19T03:56:14.175Z,19.81
2023-08-19T03:57:14.232Z,19.81
2023-08-19T03:58:14.295Z,19.83
2023-08-19T03:59:14.309Z,19.73
2023-08-19T04:00:14.359Z,19.69
2023-08-19T04:01:14.410Z,19.63
2023-08-19T04:02:14.451Z,19.51
2023-08-19T04:03:14.509Z,19.59
2023-08-19T04:04:14.584Z,19.60
2023-08-19T04:05:14.612Z,19.63
2023-08-19T04:06:14.661Z,19.61
2023-08-19T04:07:14.699Z,19.64
2023-08-19T04:08:14.733Z,19.70
2023-08-19T04:09:14.799Z,19.73
2023-08-19T04:10:14.846Z,19.75
2023-08-19T04:11:14.911Z,19.68
2023-08-19T04:12:14.969Z,19.69
2023-08-19T04:13:15.014Z,19.59
2023-08-19T04:14:15.076Z,19.34
2023-08-19T04:15:15.161Z,19.37
2023-08-19T04:16:15.215Z,19.37
2023-08-19T04:17:15.253Z,19.30
2023-08-19T04:18:15.357Z,19.09
2023-08-19T04:19:15.361Z,18.93
2023-08-19T04:20:15.405Z,18.86
2023-08-19T04:21:15.473Z,18.86
2023-08-19T04:22:15.505Z,18.84
2023-08-19T04:23:15.552Z,18.95
2023-08-19T04:24:15.612Z,19.08
2023-08-19T04:25:15.675Z,18.99
2023-08-19T04:26:15.742Z,19.00
2023-08-19T04:27:15.793Z,19.08
2023-08-19T04:28:15.853Z,19.13
2023-08-19T04:29:15.885Z,19.09
2023-08-19T04:30:15.975Z,19.17
2023-08-19T04:31:16.026Z,19.21
2023-08-19T04:32:16.023Z,19.28
2023-08-19T04:33:16.137Z,19.25
2023-08-19T04:34:16.096Z,19.35
2023-08-19T04:35:16.167Z,19.39
2023-08-19T04:36:16.198Z,19.36
2023-08-19T04:37:16.210Z,19.35
2023-08-19T04:38:16.277Z,19.42
2023-08-19T04:39:16.315Z,19.53
2023-08-19T04:40:16.374Z,19.60
2023-08-19T04:41:16.418Z,19.59
2023-08-19T04:42:16.462Z,19.59
2023-08-19T04:43:16.498Z,19.54
2023-08-19T04:44:16.559Z,19.45
2023-08-19T04:45:16.560Z,19.27
2023-08-19T04:46:16.645Z,19.24
2023-08-19T04:47:16.630Z,19.31
2023-08-19T04:48:16.678Z,19.44
2023-08-19T04:49:16.736Z,19.51
2023-08-19T04:50:16.774Z,19.43
2023-08-19T04:51:16.835Z,19.47
2023-08-19T04:52:16.860Z,19.49
2023-08-19T04:53:16.871Z,19.55
2023-08-19T04:54:16.993Z,19.42
2023-08-19T04:55:16.958Z,19.40
2023-08-19T04:57:17.032Z,19.40
2023-08-19T04:58:17.095Z,19.33
2023-08-19T04:59:17.132Z,19.37
2023-08-19T05:00:17.170Z,19.43
2023-08-19T05:01:17.260Z,19.51
2023-08-19T05:02:17.306Z,19.58
2023-08-19T05:03:17.336Z,19.60
2023-08-19T05:04:17.448Z,19.69
2023-08-19T05:05:17.413Z,19.80
2023-08-19T05:06:17.476Z,19.84
2023-08-19T05:07:17.479Z,19.81
2023-08-19T05:08:17.545Z,19.77
2023-08-19T05:09:17.586Z,19.67
2023-08-19T05:10:17.665Z,19.63
2023-08-19T05:11:17.702Z,19.67
2023-08-19T05:12:17.735Z,19.62
2023-08-19T05:13:17.801Z,19.58
2023-08-19T05:14:17.831Z,19.61
2023-08-19T05:15:17.885Z,19.51
2023-08-19T05:16:18.003Z,19.54
2023-08-19T05:17:17.981Z,19.57
2023-08-19T05:18:18.030Z,19.54
2023-08-19T05:19:18.042Z,19.43
2023-08-19T05:20:18.087Z,19.43
2023-08-19T05:21:18.117Z,19.38
2023-08-19T05:22:18.181Z,19.43
2023-08-19T05:23:18.188Z,19.39
2023-08-19T05:24:18.214Z,19.35
2023-08-19T05:25:18.300Z,19.43
2023-08-19T05:26:18.304Z,19.48
2023-08-19T05:27:18.272Z,19.41
2023-08-19T05:28:18.343Z,19.43
2023-08-19T05:29:18.319Z,19.42
2023-08-19T05:30:18.318Z,19.45
2023-08-19T05:31:18.420Z,19.57
2023-08-19T05:32:18.397Z,19.63
2023-08-19T05:33:18.460Z,19.62
2023-08-19T05:34:18.510Z,19.66
2023-08-19T05:35:18.563Z,19.70
2023-08-19T05:36:18.632Z,19.79
2023-08-19T05:37:18.658Z,19.74
2023-08-19T05:38:18.690Z,19.79
2023-08-19T05:39:18.737Z,19.85
2023-08-19T05:40:18.768Z,19.92
2023-08-19T05:41:18.816Z,19.99
2023-08-19T05:42:18.862Z,20.02
2023-08-19T05:43:18.877Z,20.09
2023-08-19T05:44:18.904Z,20.13
2023-08-19T05:45:18.951Z,20.05
2023-08-19T05:46:18.966Z,20.02
2023-08-19T05:47:18.986Z,19.99
2023-08-19T05:48:19.031Z,20.00
2023-08-19T05:49:19.058Z,20.00
2023-08-19T05:50:19.060Z,20.04
2023-08-19T05:51:19.083Z,20.01
2023-08-19T05:52:19.094Z,20.07
2023-08-19T05:53:19.118Z,20.00
2023-08-19T05:54:19.165Z,19.96
2023-08-19T05:55:19.205Z,19.94
2023-08-19T05:56:19.275Z,19.80
2023-08-19T05:57:19.342Z,19.83
2023-08-19T05:58:19.373Z,19.83
2023-08-19T05:59:19.417Z,19.89
2023-08-19T06:00:19.446Z,19.99
2023-08-19T06:01:20.147Z,20.10
2023-08-19T06:02:19.479Z,20.30
2023-08-19T06:03:19.560Z,20.45
2023-08-19T06:04:19.475Z,20.51
2023-08-19T06:05:19.497Z,20.57
2023-08-19T06:06:19.522Z,20.57
2023-08-19T06:07:19.558Z,20.65
2023-08-19T06:08:19.603Z,20.78
2023-08-19T06:09:19.676Z,20.96
2023-08-19T06:10:19.737Z,21.10
2023-08-19T06:11:19.849Z,21.22
2023-08-19T06:12:19.884Z,21.31
2023-08-19T06:13:19.905Z,21.40
2023-08-19T06:14:19.948Z,21.48
2023-08-19T06:15:19.961Z,21.52
2023-08-19T06:16:19.957Z,21.58
2023-08-19T06:17:20.065Z,21.65
2023-08-19T06:18:20.110Z,21.73
2023-08-19T06:19:20.112Z,21.77
2023-08-19T06:20:20.136Z,21.83
2023-08-19T06:21:20.147Z,21.94
2023-08-19T06:22:20.175Z,22.02
2023-08-19T06:23:20.217Z,22.05
2023-08-19T06:24:20.236Z,22.12
2023-08-19T06:25:20.335Z,22.20
2023-08-19T06:26:20.324Z,22.25
2023-08-19T06:27:20.373Z,22.31
2023-08-19T06:28:20.386Z,22.25
2023-08-19T06:29:20.398Z,22.26
2023-08-19T06:30:20.442Z,22.23
2023-08-19T06:31:21.753Z,22.16
2023-08-19T06:32:20.582Z,22.18
2023-08-19T06:33:20.581Z,22.21
2023-08-19T06:34:20.633Z,22.13
2023-08-19T06:35:20.675Z,22.17
2023-08-19T06:36:20.714Z,22.10
2023-08-19T06:37:20.753Z,22.06
2023-08-19T06:38:20.773Z,22.14
2023-08-19T06:39:20.807Z,22.12
2023-08-19T06:40:20.868Z,22.14
2023-08-19T06:41:20.865Z,22.13
2023-08-19T06:42:20.875Z,22.25
2023-08-19T06:43:20.901Z,22.06
2023-08-19T06:44:20.927Z,21.97
2023-08-19T06:45:20.939Z,21.93
2023-08-19T06:46:20.972Z,21.91
2023-08-19T06:47:20.949Z,21.87
2023-08-19T06:48:20.991Z,21.60
2023-08-19T06:49:20.996Z,21.66
2023-08-19T06:50:21.021Z,21.57
2023-08-19T06:51:21.069Z,21.65
2023-08-19T06:52:21.093Z,21.63
2023-08-19T06:53:21.111Z,21.68
2023-08-19T06:54:21.126Z,21.69
2023-08-19T06:55:21.145Z,21.56
2023-08-19T06:56:21.173Z,21.66
2023-08-19T06:57:21.202Z,21.68
2023-08-19T06:58:21.255Z,21.77
2023-08-19T06:59:21.285Z,21.75
2023-08-19T07:00:21.287Z,21.85
2023-08-19T07:01:21.367Z,21.84
2023-08-19T07:02:21.392Z,21.82
2023-08-19T07:03:21.411Z,21.88
2023-08-19T07:04:21.369Z,22.01
2023-08-19T07:05:21.379Z,21.96
2023-08-19T07:06:21.392Z,22.03
2023-08-19T07:07:21.416Z,22.19
2023-08-19T07:08:21.409Z,22.19
2023-08-19T07:09:21.453Z,22.28
2023-08-19T07:10:21.468Z,22.26
2023-08-19T07:11:21.501Z,22.22
2023-08-19T07:12:21.500Z,22.43
2023-08-19T07:13:21.553Z,22.60
2023-08-19T07:14:21.574Z,22.69
2023-08-19T07:15:21.649Z,22.72
2023-08-19T07:16:21.725Z,22.79
2023-08-19T07:17:21.758Z,22.87
2023-08-19T07:18:21.914Z,22.98
2023-08-19T07:19:21.849Z,23.08
2023-08-19T07:20:21.897Z,23.21
2023-08-19T07:21:21.894Z,23.25
2023-08-19T07:22:21.930Z,23.23
2023-08-19T07:23:21.974Z,23.19
2023-08-19T07:24:21.999Z,23.19
2023-08-19T07:25:22.052Z,23.23
2023-08-19T07:26:22.058Z,23.23
2023-08-19T07:27:22.077Z,23.25
2023-08-19T07:28:22.106Z,23.29
2023-08-19T07:29:22.110Z,23.28
2023-08-19T07:30:22.138Z,23.37
2023-08-19T07:31:22.123Z,23.47
2023-08-19T07:32:22.149Z,23.55
2023-08-19T07:33:22.157Z,23.67
2023-08-19T07:34:22.130Z,23.83
2023-08-19T07:35:22.162Z,23.96
2023-08-19T07:36:22.191Z,24.02
2023-08-19T07:37:22.217Z,23.97
2023-08-19T07:38:22.268Z,24.11
2023-08-19T07:39:22.306Z,24.26
2023-08-19T07:40:22.361Z,24.34
2023-08-19T07:41:22.413Z,24.36
2023-08-19T07:42:22.458Z,24.39
2023-08-19T07:43:22.515Z,24.44
2023-08-19T07:44:22.546Z,24.51
2023-08-19T07:45:22.606Z,24.58
2023-08-19T07:46:22.646Z,24.52
2023-08-19T07:47:22.660Z,24.41
2023-08-19T07:48:22.758Z,24.47
2023-08-19T07:49:22.726Z,24.55
2023-08-19T07:50:22.748Z,24.61
2023-08-19T07:51:22.778Z,24.60
2023-08-19T07:52:22.794Z,24.66
2023-08-19T07:53:22.826Z,24.76
2023-08-19T07:54:22.867Z,24.86
2023-08-19T07:55:22.898Z,24.92
2023-08-19T07:56:22.909Z,24.93
2023-08-19T07:57:22.929Z,25.00
2023-08-19T07:58:22.974Z,25.05
2023-08-19T07:59:23.009Z,25.06
2023-08-19T08:00:23.021Z,25.10
2023-08-19T08:01:23.044Z,25.11
2023-08-19T08:02:23.806Z,25.15
2023-08-19T08:03:23.137Z,25.24
2023-08-19T08:04:23.102Z,25.27
2023-08-19T08:05:23.283Z,25.38
2023-08-19T08:06:23.095Z,25.41
2023-08-19T08:07:23.106Z,25.47
2023-08-19T08:08:23.148Z,25.51
2023-08-19T08:09:23.198Z,25.48
2023-08-19T08:10:23.256Z,25.54
2023-08-19T08:11:23.314Z,25.55
2023-08-19T08:12:23.378Z,25.52
2023-08-19T08:13:23.412Z,25.56
2023-08-19T08:14:23.491Z,25.60
2023-08-19T08:15:23.521Z,25.64
2023-08-19T08:16:23.625Z,25.68
2023-08-19T08:17:23.616Z,25.71
2023-08-19T08:18:23.694Z,25.79
2023-08-19T08:19:23.718Z,25.85
2023-08-19T08:20:23.748Z,25.91
2023-08-19T08:21:23.794Z,26.02
2023-08-19T08:22:23.815Z,26.11
2023-08-19T08:23:23.853Z,26.17
2023-08-19T08:24:23.888Z,26.10
2023-08-19T08:25:23.927Z,26.12
2023-08-19T08:26:23.957Z,26.13
2023-08-19T08:27:23.994Z,26.14
2023-08-19T08:28:24.019Z,26.06
2023-08-19T08:29:24.044Z,26.07
2023-08-19T08:30:24.089Z,26.14
2023-08-19T08:31:24.130Z,26.02
2023-08-19T08:32:24.245Z,25.99
2023-08-19T08:33:24.159Z,26.09
2023-08-19T08:34:24.196Z,26.26
2023-08-19T08:35:24.193Z,26.38
2023-08-19T08:36:24.235Z,26.46
2023-08-19T08:37:24.233Z,26.30
2023-08-19T08:38:24.257Z,26.33
2023-08-19T08:39:24.267Z,26.47
2023-08-19T08:40:24.795Z,26.46
2023-08-19T08:41:24.311Z,26.42
2023-08-19T08:42:24.311Z,26.42
2023-08-19T08:43:24.318Z,26.38
2023-08-19T08:44:24.348Z,26.42
2023-08-19T08:45:24.404Z,26.58
2023-08-19T08:46:24.384Z,26.69
2023-08-19T08:47:24.473Z,26.81
2023-08-19T08:48:24.409Z,26.88
2023-08-19T08:49:24.483Z,26.87
2023-08-19T08:50:24.420Z,26.88
2023-08-19T08:51:24.458Z,26.84
2023-08-19T08:52:24.466Z,26.70
2023-08-19T08:53:24.465Z,26.82
2023-08-19T08:54:24.516Z,26.66
2023-08-19T08:55:24.486Z,26.68
2023-08-19T08:56:24.496Z,26.70
2023-08-19T08:57:24.537Z,26.75
2023-08-19T08:58:24.554Z,26.79
2023-08-19T08:59:24.560Z,26.73
2023-08-19T09:00:24.569Z,26.73
2023-08-19T09:01:24.702Z,26.65
2023-08-19T09:02:24.620Z,26.77
2023-08-19T09:03:24.677Z,26.89
2023-08-19T09:04:24.782Z,26.94
2023-08-19T09:05:24.820Z,26.75
2023-08-19T09:06:27.374Z,26.67
2023-08-19T09:07:24.808Z,26.60
2023-08-19T09:08:24.802Z,26.52
2023-08-19T09:09:24.787Z,26.66
2023-08-19T09:10:24.795Z,26.77
2023-08-19T09:11:24.788Z,26.89
2023-08-19T09:12:24.772Z,26.89
2023-08-19T09:13:24.772Z,27.07
2023-08-19T09:14:24.764Z,27.21
2023-08-19T09:15:24.773Z,27.32
2023-08-19T09:16:24.761Z,27.36
2023-08-19T09:17:24.746Z,27.40
2023-08-19T09:18:24.744Z,27.47
2023-08-19T09:19:24.743Z,27.60
2023-08-19T09:20:24.731Z,27.72
2023-08-19T09:21:24.728Z,27.70
2023-08-19T09:22:24.723Z,27.66
2023-08-19T09:23:24.711Z,27.78
2023-08-19T09:24:24.709Z,27.90
2023-08-19T09:25:24.712Z,27.97
2023-08-19T09:26:24.696Z,27.88
2023-08-19T09:27:24.688Z,27.92
2023-08-19T09:28:24.677Z,28.12
2023-08-19T09:29:24.676Z,28.23
2023-08-19T09:30:24.663Z,28.19
2023-08-19T09:31:24.694Z,28.20
2023-08-19T09:32:24.648Z,28.25
2023-08-19T09:33:24.641Z,28.35
2023-08-19T09:34:24.633Z,28.49
2023-08-19T09:35:24.629Z,28.45
2023-08-19T09:36:24.636Z,28.37
2023-08-19T09:37:24.621Z,28.45
2023-08-19T09:38:24.622Z,28.50
2023-08-19T09:39:24.606Z,28.65
2023-08-19T09:40:24.600Z,28.80
2023-08-19T09:41:24.625Z,28.85
2023-08-19T09:42:24.586Z,28.97
2023-08-19T09:43:24.584Z,29.06
2023-08-19T09:44:24.589Z,28.93
2023-08-19T09:45:24.679Z,29.01
2023-08-19T09:46:24.586Z,28.95
2023-08-19T09:47:24.546Z,29.04
2023-08-19T09:48:24.547Z,29.00
2023-08-19T09:49:24.548Z,29.10
2023-08-19T09:50:24.554Z,28.98
2023-08-19T09:51:24.598Z,29.12
2023-08-19T09:52:24.516Z,29.18
2023-08-19T09:53:24.552Z,29.18
2023-08-19T09:54:24.507Z,29.27
2023-08-19T09:55:24.495Z,29.29
2023-08-19T09:56:24.496Z,29.30
2023-08-19T09:57:24.493Z,29.36
2023-08-19T09:58:24.477Z,29.47
2023-08-19T09:59:24.472Z,29.43
2023-08-19T10:00:24.498Z,29.56
2023-08-19T10:01:24.540Z,29.65
2023-08-19T10:02:24.447Z,29.76
2023-08-19T10:03:24.486Z,29.82
2023-08-19T10:04:24.476Z,29.86
2023-08-19T10:05:24.470Z,29.94
2023-08-19T10:06:24.447Z,30.00
2023-08-19T10:07:24.428Z,29.98
2023-08-19T10:08:24.452Z,29.94
2023-08-19T10:09:24.411Z,29.98
2023-08-19T10:10:24.409Z,29.96
2023-08-19T10:11:24.403Z,29.93
2023-08-19T10:12:24.390Z,30.00
2023-08-19T10:13:24.384Z,30.12
2023-08-19T10:14:24.404Z,30.03
2023-08-19T10:15:24.382Z,30.11
2023-08-19T10:16:24.411Z,30.21
2023-08-19T10:17:24.441Z,30.30
2023-08-19T10:18:24.361Z,30.32
2023-08-19T10:19:24.416Z,30.32
2023-08-19T10:20:24.492Z,30.39
2023-08-19T10:21:24.543Z,30.37
2023-08-19T10:22:24.589Z,30.31
2023-08-19T10:23:24.660Z,30.42
2023-08-19T10:24:24.644Z,30.46
2023-08-19T10:25:24.724Z,30.47
2023-08-19T10:26:24.744Z,30.53
2023-08-19T10:27:24.801Z,30.55
2023-08-19T10:28:24.832Z,30.63
2023-08-19T10:29:24.859Z,30.69
2023-08-19T10:30:24.901Z,30.67
2023-08-19T10:31:24.934Z,30.72
2023-08-19T10:32:24.959Z,30.77
2023-08-19T10:33:25.028Z,30.74
2023-08-19T10:34:25.058Z,30.75
2023-08-19T10:35:25.101Z,30.62
2023-08-19T10:36:25.134Z,30.66
2023-08-19T10:37:25.158Z,30.70
2023-08-19T10:38:25.176Z,30.65
2023-08-19T10:39:25.199Z,30.57
2023-08-19T10:40:25.217Z,30.57
2023-08-19T10:41:25.220Z,30.60
2023-08-19T10:42:25.224Z,30.75
2023-08-19T10:43:25.218Z,30.93
2023-08-19T10:44:25.230Z,31.08
2023-08-19T10:45:25.229Z,31.12
2023-08-19T10:46:25.293Z,31.22
2023-08-19T10:47:25.354Z,31.18
2023-08-19T10:48:25.301Z,31.26
2023-08-19T10:49:25.340Z,31.39
2023-08-19T10:50:25.371Z,31.42
2023-08-19T10:51:25.447Z,31.50
2023-08-19T10:52:25.411Z,31.47
2023-08-19T10:53:25.406Z,31.53
2023-08-19T10:54:25.427Z,31.61
2023-08-19T10:55:25.454Z,31.69
2023-08-19T10:56:25.510Z,31.74
2023-08-19T10:57:25.623Z,31.75
2023-08-19T10:58:25.562Z,31.82
2023-08-19T10:59:25.594Z,31.93
2023-08-19T11:00:25.602Z,31.94
2023-08-19T11:01:25.669Z,31.96
2023-08-19T11:02:25.664Z,31.86
2023-08-19T11:03:25.670Z,31.94
2023-08-19T11:04:25.740Z,32.03
2023-08-19T11:05:25.736Z,32.06
2023-08-19T11:06:25.777Z,32.10
2023-08-19T11:07:25.825Z,32.17
2023-08-19T11:08:25.885Z,32.10
2023-08-19T11:09:25.905Z,32.10
2023-08-19T11:10:25.918Z,32.14
2023-08-19T11:11:25.940Z,32.18
2023-08-19T11:12:26.400Z,32.21
2023-08-19T11:13:26.038Z,32.25
2023-08-19T11:14:26.094Z,32.37
2023-08-19T11:15:26.134Z,32.41
2023-08-19T11:16:26.209Z,32.42
2023-08-19T11:17:26.247Z,32.38
2023-08-19T11:18:26.321Z,32.49
2023-08-19T11:19:26.310Z,32.55
2023-08-19T11:20:26.356Z,32.61
2023-08-19T11:21:26.346Z,32.67
2023-08-19T11:22:26.409Z,32.76
2023-08-19T11:23:26.387Z,32.78
2023-08-19T11:24:26.419Z,32.81
2023-08-19T11:25:26.428Z,32.88
2023-08-19T11:26:26.484Z,32.89
2023-08-19T11:27:26.588Z,32.94
2023-08-19T11:28:26.639Z,32.92
2023-08-19T11:29:26.642Z,32.99
2023-08-19T11:30:26.632Z,33.04
2023-08-19T11:31:26.722Z,33.08
2023-08-19T11:32:26.685Z,33.11
2023-08-19T11:33:26.721Z,33.16
2023-08-19T11:34:26.711Z,33.22
2023-08-19T11:35:26.777Z,33.28
2023-08-19T11:36:26.826Z,33.29
2023-08-19T11:37:26.879Z,33.37
2023-08-19T11:38:26.935Z,33.39
2023-08-19T11:39:26.990Z,33.47
2023-08-19T11:40:29.906Z,33.56
2023-08-19T11:41:27.030Z,33.61
2023-08-19T11:42:27.028Z,33.59
2023-08-19T11:43:27.028Z,33.63
2023-08-19T11:44:27.023Z,33.65
2023-08-19T11:45:27.003Z,33.69
2023-08-19T11:46:26.999Z,33.69
2023-08-19T11:47:27.054Z,33.70
2023-08-19T11:48:27.008Z,33.79
2023-08-19T11:49:26.973Z,33.81
2023-08-19T11:50:26.972Z,33.90
2023-08-19T11:51:26.975Z,33.89
2023-08-19T11:52:26.961Z,33.86
2023-08-19T11:53:26.975Z,33.87
2023-08-19T11:54:26.945Z,33.96
2023-08-19T11:55:26.941Z,34.00
2023-08-19T11:56:26.956Z,34.07
2023-08-19T11:57:26.946Z,34.12
2023-08-19T11:58:26.933Z,34.19
2023-08-19T11:59:26.919Z,34.27
2023-08-19T12:00:26.923Z,34.34
2023-08-19T12:01:26.989Z,34.34
2023-08-19T12:02:26.907Z,34.34
2023-08-19T12:03:27.000Z,34.24
2023-08-19T12:04:26.894Z,34.22
2023-08-19T12:05:26.883Z,34.29
2023-08-19T12:06:26.870Z,34.33
2023-08-19T12:07:26.879Z,34.34
2023-08-19T12:08:26.873Z,34.46
2023-08-19T12:09:26.861Z,34.56
2023-08-19T12:10:26.849Z,34.63
2023-08-19T12:11:26.936Z,34.63
2023-08-19T12:12:26.849Z,34.61
2023-08-19T12:13:26.843Z,34.72
2023-08-19T12:14:26.838Z,34.81
2023-08-19T12:15:26.833Z,34.82
2023-08-19T12:16:26.828Z,34.86
2023-08-19T12:17:26.816Z,34.73
2023-08-19T12:18:26.833Z,34.65
2023-08-19T12:19:26.793Z,34.69
2023-08-19T12:20:26.780Z,34.74
2023-08-19T12:21:26.782Z,34.71
2023-08-19T12:22:26.809Z,34.77
2023-08-19T12:23:26.762Z,34.82
2023-08-19T12:24:26.757Z,34.90
2023-08-19T12:25:26.752Z,34.92
2023-08-19T12:26:26.754Z,34.95
2023-08-19T12:27:26.765Z,35.04
2023-08-19T12:28:26.794Z,35.06
2023-08-19T12:29:26.727Z,35.07
2023-08-19T12:30:26.730Z,35.03
2023-08-19T12:31:26.758Z,35.08
2023-08-19T12:32:26.732Z,35.16
2023-08-19T12:33:26.699Z,35.23
2023-08-19T12:34:26.698Z,35.25
2023-08-19T12:35:26.693Z,35.27
2023-08-19T12:36:26.697Z,35.29
2023-08-19T12:37:26.686Z,35.32
2023-08-19T12:38:26.681Z,35.35
2023-08-19T12:39:26.704Z,35.39
2023-08-19T12:40:26.691Z,35.46
2023-08-19T12:41:26.665Z,35.48
2023-08-19T12:42:38.340Z,35.46
2023-08-19T12:43:27.649Z,35.46
2023-08-19T12:44:26.644Z,35.46
2023-08-19T12:45:26.659Z,35.52
2023-08-19T12:46:26.634Z,35.52
2023-08-19T12:47:26.653Z,35.52
2023-08-19T12:48:26.670Z,35.48
2023-08-19T12:49:26.613Z,35.49
2023-08-19T12:50:26.609Z,35.47
2023-08-19T12:51:26.588Z,35.59
2023-08-19T12:52:26.605Z,35.64
2023-08-19T12:53:26.576Z,35.63